Time;durP1;ratioP1;P1;durP2;ratioP2;P2;SDS_P1;SDS_P2;PMS_P1;PMS_P2;Temp;Humidity;BMP_temperature;BMP_pressure;BME280_temperature;BME280_humidity;BME280_pressure;Samples;Min_cycle;Max_cycle;Signal;HPM_P1;HPM_P2
2021/03/27 00:02:32;;;;;;;5.00;2.97;;;10.00;44.70;;;;;;5133651;27;20568;-71
2021/03/27 00:05:09;;;;;;;5.80;3.40;;;10.10;44.30;;;;;;5133303;27;20939;-71
2021/03/27 00:07:48;;;;;;;4.43;3.22;;;10.10;44.30;;;;;;5133573;27;20187;-71
2021/03/27 00:10:22;;;;;;;7.53;4.20;;;10.10;43.90;;;;;;5133264;27;20175;-71
2021/03/27 00:12:55;;;;;;;4.00;2.95;;;10.00;44.60;;;;;;5133645;27;20245;-71
2021/03/27 00:15:26;;;;;;;7.47;3.80;;;10.00;45.10;;;;;;5133413;27;20258;-71
2021/03/27 00:17:58;;;;;;;4.13;3.25;;;10.00;45.00;;;;;;5132985;27;20194;-71
2021/03/27 00:20:34;;;;;;;6.15;3.60;;;10.00;45.10;;;;;;5133297;27;20188;-71
2021/03/27 00:23:08;;;;;;;6.15;3.65;;;10.00;45.10;;;;;;5133291;27;20227;-72
2021/03/27 00:25:55;;;;;;;5.10;3.20;;;10.00;45.00;;;;;;5132778;27;20215;-71
2021/03/27 00:28:48;;;;;;;9.10;4.10;;;10.00;44.60;;;;;;5130019;27;20180;-71
2021/03/27 00:31:49;;;;;;;6.47;4.45;;;10.00;44.10;;;;;;5114895;27;20279;-71
2021/03/27 00:34:21;;;;;;;5.50;3.25;;;10.00;44.20;;;;;;5130073;28;20194;-71
2021/03/27 00:36:53;;;;;;;5.40;3.58;;;9.90;45.80;;;;;;5119612;27;20249;-71
2021/03/27 00:39:25;;;;;;;5.88;4.45;;;9.90;45.90;;;;;;5112534;28;20191;-71
2021/03/27 00:41:57;;;;;;;9.48;4.97;;;9.80;45.80;;;;;;5116412;28;20180;-71
2021/03/27 00:44:28;;;;;;;5.90;4.30;;;9.80;46.00;;;;;;5112330;28;20249;-72
2021/03/27 00:47:13;;;;;;;6.88;4.70;;;9.80;46.20;;;;;;5119491;28;20216;-72
2021/03/27 00:52:56;;;;;;;9.45;5.05;;;9.70;46.80;;;;;;5115310;28;20267;-71
2021/03/27 00:55:28;;;;;;;7.57;6.13;;;9.60;46.80;;;;;;5112301;28;20599;-71
2021/03/27 00:58:22;;;;;;;9.95;4.57;;;9.60;46.90;;;;;;5129888;28;20215;-71
2021/03/27 01:00:51;;;;;;;7.97;4.97;;;9.50;47.40;;;;;;5113909;28;20271;-71
2021/03/27 01:03:25;;;;;;;9.75;4.95;;;9.50;47.60;;;;;;5111916;28;20333;-71
2021/03/27 01:05:55;;;;;;;6.90;5.40;;;9.40;47.70;;;;;;5116091;28;20254;-71
2021/03/27 01:08:25;;;;;;;6.72;4.55;;;9.30;48.00;;;;;;5120722;28;20650;-71
2021/03/27 01:10:55;;;;;;;5.68;4.55;;;9.30;48.20;;;;;;5115384;27;20215;-71
2021/03/27 01:13:30;;;;;;;7.15;4.35;;;9.30;48.30;;;;;;5116013;27;20188;-71
2021/03/27 01:16:00;;;;;;;5.57;4.60;;;9.30;48.90;;;;;;5128828;27;20211;-71
2021/03/27 01:18:33;;;;;;;5.03;4.13;;;9.10;48.90;;;;;;5116047;27;20627;-71
2021/03/27 01:21:13;;;;;;;7.38;5.40;;;9.10;48.70;;;;;;5131717;27;20195;-71
2021/03/27 01:23:40;;;;;;;7.90;4.68;;;9.10;49.00;;;;;;5115863;27;20188;-71
2021/03/27 01:26:13;;;;;;;8.25;4.32;;;9.10;49.20;;;;;;5118089;27;20216;-71
2021/03/27 01:29:07;;;;;;;5.90;4.50;;;9.10;49.10;;;;;;5115724;27;20196;-71
2021/03/27 01:31:42;;;;;;;7.50;4.38;;;9.00;49.50;;;;;;5123141;27;20193;-71
2021/03/27 01:34:22;;;;;;;7.03;3.80;;;9.00;49.50;;;;;;5115962;27;20587;-71
2021/03/27 01:37:08;;;;;;;6.50;4.32;;;9.00;49.50;;;;;;5129129;27;20183;-71
2021/03/27 01:42:46;;;;;;;5.95;4.32;;;9.00;49.40;;;;;;5133767;27;20198;-71
2021/03/27 01:45:47;;;;;;;8.38;3.75;;;9.10;49.30;;;;;;5136684;27;20681;-71
2021/03/27 01:48:37;;;;;;;5.50;4.10;;;9.10;49.40;;;;;;5115763;28;20279;-71
2021/03/27 01:51:13;;;;;;;5.72;3.35;;;9.10;49.50;;;;;;5121249;27;20248;-71
2021/03/27 01:53:46;;;;;;;10.00;4.20;;;9.00;49.40;;;;;;5136311;27;20195;-71
2021/03/27 01:56:48;;;;;;;5.93;3.90;;;9.00;49.50;;;;;;5135889;27;20234;-71
2021/03/27 01:59:34;;;;;;;8.15;3.83;;;9.00;49.40;;;;;;5135885;27;20191;-71
2021/03/27 02:02:09;;;;;;;4.70;3.55;;;9.00;49.40;;;;;;5135387;27;20187;-71
2021/03/27 02:04:40;;;;;;;5.15;3.33;;;8.90;49.20;;;;;;5135905;27;20188;-71
2021/03/27 02:07:18;;;;;;;5.35;3.50;;;8.90;49.10;;;;;;5135501;27;20236;-71
2021/03/27 02:09:54;;;;;;;3.97;2.80;;;8.90;49.40;;;;;;5135738;27;20175;-71
2021/03/27 02:12:35;;;;;;;4.50;3.22;;;8.90;50.00;;;;;;5135601;27;20194;-71
2021/03/27 02:15:08;;;;;;;4.78;3.70;;;8.80;50.30;;;;;;5135488;27;20256;-71
2021/03/27 02:17:49;;;;;;;7.72;4.85;;;8.80;50.00;;;;;;5135764;27;20215;-71
2021/03/27 02:20:52;;;;;;;5.30;3.78;;;8.70;50.00;;;;;;5134759;27;20219;-71
2021/03/27 02:23:26;;;;;;;5.35;3.72;;;8.60;49.80;;;;;;5135469;27;20638;-71
2021/03/27 02:26:16;;;;;;;6.72;4.43;;;8.60;50.10;;;;;;5135379;27;20211;-71
2021/03/27 02:29:08;;;;;;;7.72;3.30;;;8.60;50.30;;;;;;5135250;27;20191;-71
2021/03/27 02:31:59;;;;;;;5.00;3.25;;;8.60;50.60;;;;;;5135427;27;20199;-71
2021/03/27 02:34:34;;;;;;;7.15;2.95;;;8.50;50.60;;;;;;5135093;27;20279;-71
2021/03/27 02:37:06;;;;;;;4.45;3.17;;;8.50;50.80;;;;;;5135491;27;20244;-71
2021/03/27 02:39:41;;;;;;;5.43;3.10;;;8.40;50.80;;;;;;5134509;27;20187;-71
2021/03/27 02:42:21;;;;;;;6.63;3.70;;;8.40;50.90;;;;;;5135478;27;20274;-71
2021/03/27 02:44:54;;;;;;;7.68;4.22;;;8.40;50.90;;;;;;5135052;27;20188;-71
2021/03/27 02:47:38;;;;;;;5.72;3.05;;;8.40;51.00;;;;;;5134775;27;20216;-71
2021/03/27 02:50:30;;;;;;;5.30;3.45;;;8.40;51.10;;;;;;5134793;27;20199;-71
2021/03/27 02:53:02;;;;;;;4.82;2.90;;;8.40;51.40;;;;;;5132407;27;20641;-71
2021/03/27 02:55:38;;;;;;;5.13;3.53;;;8.30;51.60;;;;;;5134966;27;20701;-70
2021/03/27 02:58:16;;;;;;;5.95;3.63;;;8.20;51.90;;;;;;5134559;27;20241;-71
2021/03/27 03:00:51;;;;;;;7.68;4.30;;;8.20;52.00;;;;;;5134489;27;20210;-71
2021/03/27 03:03:25;;;;;;;4.97;3.50;;;8.10;52.00;;;;;;5134901;27;20247;-71
2021/03/27 03:05:56;;;;;;;3.72;2.75;;;8.10;51.60;;;;;;5134710;27;20244;-70
2021/03/27 03:08:27;;;;;;;4.90;2.90;;;8.00;51.60;;;;;;5134649;27;20191;-71
2021/03/27 03:11:02;;;;;;;5.18;2.95;;;8.00;51.50;;;;;;5134291;27;20195;-71
2021/03/27 03:13:35;;;;;;;5.18;3.60;;;8.00;51.70;;;;;;5134766;27;20277;-70
2021/03/27 03:16:11;;;;;;;4.30;2.88;;;7.90;51.80;;;;;;5134335;27;20211;-71
2021/03/27 03:18:49;;;;;;;4.25;2.50;;;7.80;52.10;;;;;;5134547;27;20278;-71
2021/03/27 03:21:24;;;;;;;5.22;3.50;;;7.80;52.30;;;;;;5132852;27;20292;-70
2021/03/27 03:23:59;;;;;;;6.10;3.40;;;7.90;52.40;;;;;;5134213;27;20236;-70
2021/03/27 03:26:35;;;;;;;6.20;3.35;;;7.90;52.10;;;;;;5134421;27;20194;-70
2021/03/27 03:29:18;;;;;;;5.57;3.70;;;8.00;52.20;;;;;;5133889;27;20638;-70
2021/03/27 03:32:03;;;;;;;4.30;3.30;;;8.00;51.60;;;;;;5134329;27;20227;-70
2021/03/27 03:34:49;;;;;;;9.40;4.00;;;8.00;51.50;;;;;;5134091;27;20190;-70
2021/03/27 03:37:21;;;;;;;15.55;8.35;;;8.10;51.50;;;;;;5133907;27;20203;-70
2021/03/27 03:40:14;;;;;;;11.60;7.80;;;8.20;51.40;;;;;;5134102;27;20191;-70
2021/03/27 03:43:11;;;;;;;19.85;9.45;;;8.20;51.20;;;;;;5131113;27;20256;-70
2021/03/27 03:46:09;;;;;;;18.55;13.07;;;8.30;51.20;;;;;;5133653;27;20198;-70
2021/03/27 03:48:47;;;;;;;18.95;11.95;;;8.30;50.90;;;;;;5133889;27;20195;-70
2021/03/27 03:51:27;;;;;;;19.58;11.70;;;8.40;51.00;;;;;;5133683;27;20195;-70
2021/03/27 03:54:14;;;;;;;14.77;9.35;;;8.40;50.80;;;;;;5133718;27;20195;-70
2021/03/27 03:56:47;;;;;;;13.05;6.75;;;8.50;50.60;;;;;;5113418;28;20216;-70
2021/03/27 03:59:37;;;;;;;15.70;10.00;;;8.50;50.70;;;;;;5116066;27;20180;-70
2021/03/27 04:02:09;;;;;;;78.82;40.08;;;8.50;50.80;;;;;;5133870;27;20683;-70
2021/03/27 04:04:44;;;;;;;41.95;23.35;;;8.50;50.80;;;;;;5133704;27;20187;-70
2021/03/27 04:07:17;;;;;;;40.47;21.40;;;8.50;51.30;;;;;;5134002;27;20237;-70
2021/03/27 04:09:51;;;;;;;43.25;21.20;;;8.40;51.30;;;;;;5133627;27;20550;-70
2021/03/27 04:12:26;;;;;;;29.98;16.10;;;8.40;51.60;;;;;;5134000;27;20191;-69
2021/03/27 04:15:29;;;;;;;31.02;16.65;;;8.40;51.90;;;;;;5133219;27;20194;-70
2021/03/27 04:18:06;;;;;;;28.95;15.70;;;8.40;52.20;;;;;;5133816;27;20198;-71
2021/03/27 04:20:46;;;;;;;28.10;15.55;;;8.40;52.20;;;;;;5133382;27;20236;-71
2021/03/27 04:23:20;;;;;;;31.45;17.63;;;8.50;52.30;;;;;;5133925;27;20240;-71
2021/03/27 04:26:04;;;;;;;84.35;43.38;;;8.50;52.40;;;;;;5133197;27;20186;-71
2021/03/27 04:28:48;;;;;;;65.35;34.05;;;8.60;52.30;;;;;;5133320;27;20286;-71
2021/03/27 04:31:22;;;;;;;138.90;69.05;;;8.60;52.40;;;;;;5133708;27;20661;-71
2021/03/27 04:33:57;;;;;;;75.07;42.30;;;8.70;52.50;;;;;;5133113;27;20184;-71
2021/03/27 04:36:31;;;;;;;50.60;27.05;;;8.70;53.30;;;;;;5133306;27;20207;-71
2021/03/27 04:39:04;;;;;;;37.65;22.52;;;8.70;53.50;;;;;;5132897;27;20263;-71
2021/03/27 04:41:41;;;;;;;13.60;8.93;;;8.80;54.20;;;;;;5133608;27;20620;-71
2021/03/27 04:44:19;;;;;;;9.10;6.05;;;8.90;55.80;;;;;;5133191;27;20228;-71
2021/03/27 04:46:51;;;;;;;8.45;5.85;;;9.10;55.60;;;;;;5137535;27;20267;-71
2021/03/27 04:49:26;;;;;;;9.25;6.55;;;9.30;55.40;;;;;;5137163;27;20196;-71
2021/03/27 04:52:07;;;;;;;8.60;4.88;;;9.40;55.20;;;;;;5137603;27;20192;-71
2021/03/27 04:55:00;;;;;;;6.95;4.82;;;9.60;55.00;;;;;;5137284;27;20193;-71
2021/03/27 04:57:41;;;;;;;8.52;5.57;;;9.70;54.70;;;;;;5137665;27;20188;-71
2021/03/27 05:00:25;;;;;;;7.95;5.80;;;9.80;54.70;;;;;;5136844;27;20184;-71
2021/03/27 05:03:04;;;;;;;6.38;4.63;;;9.90;55.00;;;;;;5137404;27;20187;-71
2021/03/27 05:05:46;;;;;;;8.65;5.95;;;9.90;56.00;;;;;;5137136;27;20191;-71
2021/03/27 05:08:17;;;;;;;6.75;5.70;;;10.00;55.70;;;;;;5137558;27;20195;-71
2021/03/27 05:10:54;;;;;;;8.77;5.10;;;10.10;55.60;;;;;;5137103;27;20587;-71
2021/03/27 05:13:33;;;;;;;5.50;4.30;;;10.20;56.60;;;;;;5137192;27;20195;-72
2021/03/27 05:16:08;;;;;;;7.82;5.35;;;10.20;57.20;;;;;;5136940;27;20681;-71
2021/03/27 05:18:45;;;;;;;7.35;4.90;;;10.40;57.50;;;;;;5136765;27;20195;-71
2021/03/27 05:21:40;;;;;;;6.25;4.50;;;10.40;57.90;;;;;;5137238;27;20673;-71
2021/03/27 05:24:20;;;;;;;6.57;4.32;;;10.50;58.60;;;;;;5136607;27;20190;-71
2021/03/27 05:26:58;;;;;;;6.70;5.20;;;10.60;58.40;;;;;;5137075;27;20196;-71
2021/03/27 05:29:45;;;;;;;9.38;5.43;;;10.70;58.50;;;;;;5136439;27;20291;-71
2021/03/27 05:32:31;;;;;;;8.95;5.57;;;10.70;59.10;;;;;;5136995;27;20217;-71
2021/03/27 05:35:05;;;;;;;8.02;5.22;;;10.80;58.90;;;;;;5136292;27;20183;-71
2021/03/27 05:37:43;;;;;;;6.47;5.10;;;10.80;59.10;;;;;;5136944;27;20696;-71
2021/03/27 05:40:57;;;;;;;6.10;4.65;;;10.90;59.20;;;;;;5129449;27;20186;-71
2021/03/27 05:43:56;;;;;;;5.13;3.72;;;10.90;58.80;;;;;;5136331;27;20187;-71
2021/03/27 05:46:58;;;;;;;6.35;4.03;;;10.90;58.70;;;;;;5136405;27;20219;-72
2021/03/27 05:49:46;;;;;;;4.55;3.45;;;10.90;58.70;;;;;;5135843;27;20279;-71
2021/03/27 05:52:32;;;;;;;4.68;3.65;;;11.00;58.40;;;;;;5136608;27;20667;-72
2021/03/27 05:55:22;;;;;;;5.38;4.10;;;11.00;58.20;;;;;;5136430;27;20579;-72
2021/03/27 05:58:19;;;;;;;5.03;3.60;;;11.00;58.10;;;;;;5136468;27;20230;-72
2021/03/27 06:01:10;;;;;;;5.18;3.53;;;11.10;58.10;;;;;;5136437;27;20589;-71
2021/03/27 06:03:58;;;;;;;5.55;4.40;;;11.10;57.80;;;;;;5136025;27;20179;-71
2021/03/27 06:06:48;;;;;;;6.55;4.65;;;11.10;57.90;;;;;;5136172;27;20195;-71
2021/03/27 06:09:27;;;;;;;4.60;3.45;;;11.10;58.20;;;;;;5135946;27;20188;-71
2021/03/27 06:12:16;;;;;;;4.80;3.45;;;11.10;58.10;;;;;;5136104;27;20234;-71
2021/03/27 06:15:05;;;;;;;11.27;4.45;;;11.20;57.70;;;;;;5135770;27;20218;-71
2021/03/27 06:17:45;;;;;;;5.25;3.40;;;11.20;57.60;;;;;;5135911;27;20188;-72
2021/03/27 06:20:36;;;;;;;4.50;3.55;;;11.30;57.10;;;;;;5135447;27;20274;-71
2021/03/27 06:23:38;;;;;;;3.78;2.45;;;11.30;56.20;;;;;;5135754;27;20195;-72
2021/03/27 06:26:30;;;;;;;3.67;2.47;;;11.40;55.40;;;;;;5097321;28;20219;-71
2021/03/27 06:29:36;;;;;;;4.63;2.45;;;11.40;54.70;;;;;;5122936;27;20191;-71
2021/03/27 06:32:32;;;;;;;3.13;1.80;;;11.30;54.00;;;;;;5135776;27;20191;-72
2021/03/27 06:35:16;;;;;;;3.00;1.88;;;11.30;53.80;;;;;;5103987;27;20206;-72
2021/03/27 06:38:14;;;;;;;2.47;1.60;;;11.30;53.60;;;;;;5135818;27;20225;-71
2021/03/27 06:41:02;;;;;;;2.95;1.60;;;11.30;53.30;;;;;;5115031;28;20246;-71
2021/03/27 06:43:46;;;;;;;3.35;1.73;;;11.30;53.20;;;;;;5118347;27;20557;-71
2021/03/27 06:46:38;;;;;;;3.65;1.65;;;11.30;53.20;;;;;;5131989;27;20216;-72
2021/03/27 06:49:51;;;;;;;3.25;1.67;;;11.30;53.70;;;;;;5115461;28;20285;-72
2021/03/27 06:52:56;;;;;;;2.55;1.35;;;11.20;53.90;;;;;;5118700;27;20183;-71
2021/03/27 06:55:44;;;;;;;2.78;1.50;;;11.20;54.20;;;;;;5125354;27;20207;-72
2021/03/27 06:58:39;;;;;;;3.05;1.30;;;11.20;54.40;;;;;;5135076;27;20668;-72
2021/03/27 07:01:57;;;;;;;2.15;1.30;;;11.20;54.60;;;;;;5135256;27;20202;-71
2021/03/27 07:05:11;;;;;;;2.33;1.40;;;11.30;54.90;;;;;;5122622;27;20192;-72
2021/03/27 07:08:00;;;;;;;1.90;0.90;;;11.20;54.60;;;;;;5134785;27;20675;-72
2021/03/27 07:11:13;;;;;;;2.65;1.40;;;11.20;55.10;;;;;;5135499;27;20266;-72
2021/03/27 07:14:09;;;;;;;2.80;1.45;;;11.20;55.20;;;;;;5114636;28;20192;-71
2021/03/27 07:16:41;;;;;;;1.77;0.75;;;11.20;55.60;;;;;;5111216;27;20679;-72
2021/03/27 07:19:57;;;;;;;2.60;1.10;;;11.10;56.40;;;;;;5135098;27;20196;-71
2021/03/27 07:22:43;;;;;;;2.40;1.50;;;11.10;57.00;;;;;;5135205;27;20244;-71
2021/03/27 07:25:48;;;;;;;2.17;1.25;;;11.00;57.30;;;;;;5135383;27;20188;-71
2021/03/27 07:28:34;;;;;;;1.90;1.10;;;11.00;57.50;;;;;;5103138;28;20184;-72
2021/03/27 07:31:25;;;;;;;1.77;0.93;;;11.10;57.30;;;;;;5114414;28;20230;-72
2021/03/27 07:34:33;;;;;;;2.10;1.10;;;11.10;56.90;;;;;;5114206;28;20193;-72
2021/03/27 07:37:36;;;;;;;2.30;1.05;;;11.10;56.80;;;;;;5123641;27;20216;-72
2021/03/27 07:40:27;;;;;;;6.43;1.13;;;11.20;57.20;;;;;;5131451;27;20187;-71
2021/03/27 07:43:12;;;;;;;2.40;0.93;;;11.20;56.60;;;;;;5126085;27;20184;-72
2021/03/27 07:46:11;;;;;;;2.90;0.98;;;11.10;56.40;;;;;;5125642;27;20199;-71
2021/03/27 07:49:23;;;;;;;1.83;1.00;;;11.10;56.40;;;;;;5109345;27;20220;-71
2021/03/27 07:52:04;;;;;;;1.88;1.40;;;11.10;56.10;;;;;;5128957;27;20191;-72
2021/03/27 07:55:12;;;;;;;2.00;1.10;;;11.20;55.50;;;;;;5127309;27;20188;-71
2021/03/27 07:57:58;;;;;;;2.92;1.50;;;11.10;55.50;;;;;;5128907;27;20209;-71
2021/03/27 08:00:50;;;;;;;3.05;1.83;;;11.10;55.00;;;;;;5128297;27;20240;-71
2021/03/27 08:03:53;;;;;;;2.05;0.95;;;11.20;55.60;;;;;;5121512;27;20189;-71
2021/03/27 08:06:49;;;;;;;3.42;1.00;;;11.20;54.90;;;;;;5121443;27;20524;-72
2021/03/27 08:09:40;;;;;;;4.35;1.30;;;11.10;54.60;;;;;;5094287;27;20191;-72
2021/03/27 08:12:44;;;;;;;5.20;1.17;;;11.20;55.40;;;;;;5117179;27;20215;-72
2021/03/27 08:15:45;;;;;;;2.70;1.45;;;11.10;55.00;;;;;;5130436;27;20268;-72
2021/03/27 08:18:51;;;;;;;6.45;1.65;;;11.20;55.90;;;;;;5127263;27;20585;-72
2021/03/27 08:21:27;;;;;;;4.35;1.10;;;11.10;54.90;;;;;;5116888;27;20535;-72
2021/03/27 08:24:05;;;;;;;9.20;1.45;;;10.70;53.50;;;;;;5126664;27;20236;-72
2021/03/27 08:27:00;;;;;;;5.85;1.00;;;10.40;54.10;;;;;;5118265;27;20271;-72
2021/03/27 08:30:20;;;;;;;8.50;1.73;;;10.10;54.80;;;;;;5129223;27;20206;-72
2021/03/27 08:33:12;;;;;;;2.05;0.82;;;9.90;56.70;;;;;;5128556;28;20279;-72
2021/03/27 08:36:14;;;;;;;2.20;1.02;;;9.70;57.50;;;;;;5120780;28;20712;-72
2021/03/27 08:39:03;;;;;;;1.50;0.80;;;9.60;57.50;;;;;;5129605;28;20198;-72
2021/03/27 08:41:56;;;;;;;1.50;0.80;;;9.50;58.00;;;;;;5116683;28;20237;-72
2021/03/27 08:44:59;;;;;;;2.00;1.05;;;9.50;59.00;;;;;;5093731;27;20184;-72
2021/03/27 08:47:46;;;;;;;24.52;3.67;;;9.50;58.30;;;;;;5120598;27;20281;-72
2021/03/27 08:50:40;;;;;;;10.65;2.55;;;9.60;58.80;;;;;;5129865;28;20291;-72
2021/03/27 08:53:40;;;;;;;17.33;2.92;;;9.70;59.00;;;;;;5129946;28;20274;-72
2021/03/27 08:56:55;;;;;;;4.63;1.10;;;9.80;59.00;;;;;;5130233;27;20234;-72
2021/03/27 08:59:43;;;;;;;7.15;1.90;;;9.80;57.70;;;;;;5067389;28;20673;-71
2021/03/27 09:02:48;;;;;;;5.80;1.55;;;9.80;58.30;;;;;;5122939;28;20666;-72
2021/03/27 09:05:34;;;;;;;19.42;2.40;;;10.00;57.90;;;;;;5130538;27;20516;-71
2021/03/27 09:08:26;;;;;;;4.07;0.85;;;10.10;57.90;;;;;;5128823;28;20191;-72
2021/03/27 09:11:15;;;;;;;11.20;1.92;;;10.10;56.60;;;;;;5130360;27;20260;-71
2021/03/27 09:14:20;;;;;;;7.72;1.40;;;10.20;56.90;;;;;;5125831;27;20192;-72
2021/03/27 09:17:22;;;;;;;4.70;1.10;;;10.30;56.60;;;;;;5107677;27;20258;-71
2021/03/27 09:20:18;;;;;;;8.10;1.92;;;10.20;56.00;;;;;;5111368;28;20457;-73
2021/03/27 09:22:58;;;;;;;8.23;2.00;;;10.20;56.50;;;;;;5117503;27;20219;-71
2021/03/27 09:25:33;;;;;;;1.92;1.02;;;10.30;56.20;;;;;;5112371;28;20196;-71
2021/03/27 09:28:24;;;;;;;8.27;1.70;;;10.30;55.60;;;;;;5114022;28;20541;-71
2021/03/27 09:31:05;;;;;;;5.72;1.10;;;10.30;56.20;;;;;;5127936;27;20518;-72
2021/03/27 09:33:37;;;;;;;3.08;1.17;;;10.30;56.10;;;;;;5133421;27;20192;-71
2021/03/27 09:36:24;;;;;;;3.15;0.90;;;10.40;56.40;;;;;;5130543;27;20279;-71
2021/03/27 09:39:01;;;;;;;1.95;0.60;;;10.40;55.90;;;;;;5120642;27;20265;-72
2021/03/27 09:42:02;;;;;;;2.65;1.20;;;10.40;54.80;;;;;;5116687;27;20192;-71
2021/03/27 09:45:04;;;;;;;9.95;3.72;;;10.40;55.20;;;;;;5132018;27;20211;-71
2021/03/27 09:48:14;;;;;;;14.32;2.15;;;10.60;55.10;;;;;;5133650;27;20310;-72
2021/03/27 09:50:51;;;;;;;8.52;1.30;;;10.80;54.50;;;;;;5134218;27;20192;-72
2021/03/27 09:53:38;;;;;;;9.07;1.38;;;10.90;54.20;;;;;;5128121;27;20206;-72
2021/03/27 09:56:08;;;;;;;1.88;0.93;;;11.20;54.70;;;;;;5120398;27;20211;-72
2021/03/27 09:58:47;;;;;;;6.93;1.52;;;11.30;53.20;;;;;;5130719;27;20191;-72
2021/03/27 10:01:24;;;;;;;4.28;1.67;;;11.40;53.00;;;;;;5129202;27;20188;-72
2021/03/27 10:04:17;;;;;;;4.07;1.25;;;11.60;52.90;;;;;;5120461;27;20195;-72
2021/03/27 10:07:04;;;;;;;6.50;2.15;;;11.80;53.50;;;;;;5130876;27;20237;-71
2021/03/27 10:09:39;;;;;;;36.70;5.60;;;12.00;52.40;;;;;;5119958;27;20188;-72
2021/03/27 10:12:21;;;;;;;9.65;1.58;;;12.30;52.50;;;;;;5114305;27;20191;-73
2021/03/27 10:14:53;;;;;;;3.85;1.15;;;12.50;52.20;;;;;;5115496;27;20254;-72
2021/03/27 10:17:32;;;;;;;4.45;1.35;;;12.70;52.20;;;;;;5118254;27;20239;-72
2021/03/27 10:20:17;;;;;;;2.90;1.00;;;13.40;51.20;;;;;;5116515;27;20200;-72
2021/03/27 10:22:50;;;;;;;2.50;1.23;;;14.40;50.50;;;;;;5123822;27;20192;-72
2021/03/27 10:25:24;;;;;;;1.77;0.95;;;15.30;43.50;;;;;;5131331;27;20214;-72
2021/03/27 10:28:03;;;;;;;1.88;0.98;;;16.30;43.90;;;;;;5119506;27;20249;-73
2021/03/27 10:30:41;;;;;;;3.92;1.02;;;17.50;45.30;;;;;;5131141;27;20184;-72
2021/03/27 10:33:21;;;;;;;3.67;1.42;;;18.90;38.10;;;;;;5129348;27;20699;-72
2021/03/27 10:36:14;;;;;;;2.70;1.43;;;19.60;29.50;;;;;;5116866;27;20223;-72
2021/03/27 10:39:06;;;;;;;3.00;1.23;;;19.80;29.30;;;;;;5131081;27;20464;-72
2021/03/27 10:42:00;;;;;;;2.90;1.30;;;19.00;29.10;;;;;;5123999;27;20461;-72
2021/03/27 10:44:36;;;;;;;2.97;1.27;;;18.20;28.30;;;;;;5121596;27;20430;-72
2021/03/27 10:47:07;;;;;;;3.33;1.57;;;17.50;28.60;;;;;;5127903;27;20495;-72
2021/03/27 10:49:40;;;;;;;4.77;1.63;;;16.90;28.90;;;;;;5131358;27;20794;-72
2021/03/27 10:52:46;;;;;;;4.05;2.10;;;16.50;30.40;;;;;;5127542;27;20433;-72
2021/03/27 10:55:36;;;;;;;3.63;1.63;;;16.20;30.70;;;;;;5125006;27;20184;-72
2021/03/27 10:58:39;;;;;;;5.05;3.08;;;15.90;30.00;;;;;;5128983;27;20578;-72
2021/03/27 11:01:49;;;;;;;4.55;1.60;;;15.80;29.90;;;;;;5131640;27;20274;-71
2021/03/27 11:04:59;;;;;;;4.55;1.10;;;15.60;28.60;;;;;;5124015;27;20253;-71
2021/03/27 11:08:03;;;;;;;2.53;1.05;;;15.30;28.40;;;;;;5128998;27;20587;-72
2021/03/27 11:10:55;;;;;;;2.00;1.30;;;15.90;28.80;;;;;;5123223;27;20653;-72
2021/03/27 11:14:03;;;;;;;2.65;1.10;;;16.30;27.50;;;;;;5128243;27;20191;-72
2021/03/27 11:17:06;;;;;;;3.73;1.13;;;18.60;32.70;;;;;;5131449;27;20250;-72
2021/03/27 11:20:15;;;;;;;2.40;1.03;;;25.40;26.40;;;;;;5131493;27;20798;-73
2021/03/27 11:23:15;;;;;;;2.67;1.03;;;30.90;23.10;;;;;;5069310;28;20928;-74
2021/03/27 11:26:19;;;;;;;2.03;1.20;;;35.50;17.00;;;;;;5124935;27;20540;-72
2021/03/27 11:28:50;;;;;;;3.53;2.60;;;37.50;12.30;;;;;;5130643;27;20469;-72
2021/03/27 11:31:33;;;;;;;1.77;0.80;;;37.40;10.60;;;;;;5117325;27;20474;-72
2021/03/27 11:34:14;;;;;;;2.60;1.23;;;38.40;11.30;;;;;;5116814;27;20514;-73
2021/03/27 11:36:54;;;;;;;1.97;0.70;;;40.70;11.00;;;;;;5124731;27;20457;-72
2021/03/27 11:39:39;;;;;;;3.20;1.33;;;42.70;9.10;;;;;;5124942;27;20971;-72
2021/03/27 11:42:23;;;;;;;2.27;0.70;;;44.30;8.00;;;;;;5123956;27;20983;-72
2021/03/27 11:44:59;;;;;;;2.60;0.90;;;45.30;7.20;;;;;;5117864;27;20427;-72
2021/03/27 11:47:35;;;;;;;2.80;0.90;;;46.20;7.10;;;;;;5116648;27;20876;-73
2021/03/27 11:50:47;;;;;;;2.17;0.80;;;46.40;5.80;;;;;;5113649;28;20438;-72
2021/03/27 11:53:35;;;;;;;2.70;0.83;;;45.40;5.90;;;;;;5122910;27;20931;-73
2021/03/27 11:56:12;;;;;;;3.50;0.87;;;46.20;6.20;;;;;;5121831;27;20780;-72
2021/03/27 12:01:44;;;;;;;2.37;1.00;;;41.40;4.60;;;;;;5120733;27;20446;-72
2021/03/27 12:04:26;;;;;;;1.80;0.70;;;38.10;6.30;;;;;;5114121;27;20473;-72
2021/03/27 12:07:12;;;;;;;2.43;0.70;;;35.00;6.50;;;;;;5116771;27;20473;-72
2021/03/27 12:09:51;;;;;;;4.20;0.90;;;32.00;7.70;;;;;;5113192;28;20437;-74
2021/03/27 12:12:34;;;;;;;4.00;1.23;;;29.50;9.30;;;;;;5122090;27;20437;-73
2021/03/27 12:15:17;;;;;;;3.73;1.10;;;27.40;11.00;;;;;;5126026;27;20421;-73
2021/03/27 12:18:04;;;;;;;3.43;1.10;;;25.50;12.80;;;;;;5116874;27;20433;-73
2021/03/27 12:20:35;;;;;;;2.40;1.00;;;23.90;14.30;;;;;;5130039;27;20433;-73
2021/03/27 12:23:12;;;;;;;2.13;0.80;;;22.80;15.20;;;;;;5131095;27;20494;-78
2021/03/27 12:25:46;;;;;;;2.50;1.10;;;22.00;16.60;;;;;;5115522;27;20438;-73
2021/03/27 12:28:24;;;;;;;3.23;1.13;;;21.20;17.20;;;;;;5131125;27;20432;-72
2021/03/27 12:31:02;;;;;;;6.03;1.77;;;20.30;18.50;;;;;;5114382;27;20779;-73
2021/03/27 12:33:55;;;;;;;9.73;1.87;;;19.80;19.70;;;;;;5126007;28;20916;-73
2021/03/27 12:36:30;;;;;;;2.50;1.23;;;19.20;19.60;;;;;;5126560;28;20434;-73
2021/03/27 12:39:14;;;;;;;3.60;1.43;;;18.80;20.70;;;;;;5112918;28;20486;-73
2021/03/27 12:41:48;;;;;;;8.07;1.33;;;18.40;21.30;;;;;;5114717;28;20520;-72
2021/03/27 12:44:29;;;;;;;2.83;2.33;;;18.20;22.10;;;;;;5115427;28;20456;-72
2021/03/27 12:47:04;;;;;;;2.77;1.60;;;17.90;22.50;;;;;;5115458;28;20515;-73
2021/03/27 12:49:48;;;;;;;3.57;1.20;;;17.60;22.80;;;;;;5118643;28;20492;-72
2021/03/27 12:52:26;;;;;;;7.17;2.00;;;17.40;23.00;;;;;;5128880;28;20429;-72
2021/03/27 12:55:01;;;;;;;2.83;1.33;;;17.30;23.30;;;;;;5127968;28;21011;-72
2021/03/27 12:57:52;;;;;;;9.83;2.33;;;17.30;24.30;;;;;;5130744;27;20433;-72
2021/03/27 13:01:10;;;;;;;6.10;1.87;;;18.20;24.00;;;;;;5130259;27;20433;-73
2021/03/27 13:04:14;;;;;;;3.00;1.37;;;18.60;23.70;;;;;;5095218;28;20492;-73
2021/03/27 13:06:55;;;;;;;2.13;1.27;;;18.80;23.10;;;;;;5128151;27;20485;-73
2021/03/27 13:09:48;;;;;;;2.93;1.20;;;18.90;22.80;;;;;;5128551;27;20836;-73
2021/03/27 13:12:24;;;;;;;3.63;1.17;;;18.60;22.50;;;;;;5126183;27;20828;-73
2021/03/27 13:15:29;;;;;;;3.53;1.60;;;18.40;23.20;;;;;;5120638;27;20934;-72
2021/03/27 13:18:24;;;;;;;2.60;1.33;;;18.20;23.40;;;;;;5127736;27;20429;-72
2021/03/27 13:21:03;;;;;;;3.40;1.43;;;18.00;23.90;;;;;;5099561;27;20928;-72
2021/03/27 13:23:35;;;;;;;4.63;1.40;;;17.70;24.00;;;;;;5121574;27;20476;-72
2021/03/27 13:26:14;;;;;;;10.77;2.53;;;17.30;23.90;;;;;;5116934;27;20533;-72
2021/03/27 13:28:45;;;;;;;3.30;1.43;;;16.90;24.60;;;;;;5134037;27;20493;-72
2021/03/27 13:31:15;;;;;;;5.60;2.70;;;16.70;24.90;;;;;;5134497;27;20449;-72
2021/03/27 13:33:52;;;;;;;10.40;2.10;;;16.80;25.60;;;;;;5134129;27;20434;-72
2021/03/27 13:36:31;;;;;;;2.83;1.60;;;17.00;26.10;;;;;;5120159;27;20962;-72
2021/03/27 13:39:20;;;;;;;2.30;1.60;;;17.00;25.30;;;;;;5116306;27;20490;-72
2021/03/27 13:42:04;;;;;;;3.47;2.00;;;17.10;25.30;;;;;;5120027;27;20434;-72
2021/03/27 13:44:50;;;;;;;3.43;1.30;;;17.00;25.40;;;;;;5118806;27;20445;-72
2021/03/27 13:47:45;;;;;;;4.50;1.63;;;16.70;25.50;;;;;;5131095;27;20484;-72
2021/03/27 13:50:29;;;;;;;2.47;1.30;;;16.70;26.30;;;;;;5127824;27;20469;-72
2021/03/27 13:53:49;;;;;;;3.73;1.47;;;16.80;26.50;;;;;;5131364;27;20425;-72
2021/03/27 13:56:28;;;;;;;6.57;1.77;;;17.00;25.90;;;;;;5069807;28;20431;-73
2021/03/27 13:59:19;;;;;;;2.93;1.60;;;16.80;25.30;;;;;;5119914;27;20438;-72
2021/03/27 14:02:16;;;;;;;3.83;1.57;;;16.60;25.50;;;;;;5131210;27;20433;-72
2021/03/27 14:04:47;;;;;;;3.83;1.83;;;16.70;26.30;;;;;;5132103;27;20911;-73
2021/03/27 14:07:23;;;;;;;3.93;1.33;;;16.70;26.10;;;;;;5124212;27;20298;-73
2021/03/27 14:09:57;;;;;;;3.50;1.40;;;16.60;26.20;;;;;;5132851;27;20478;-72
2021/03/27 14:12:31;;;;;;;4.80;1.30;;;16.50;26.20;;;;;;5132797;27;20436;-72
2021/03/27 14:15:21;;;;;;;6.53;1.30;;;16.20;26.70;;;;;;5126488;27;20431;-72
2021/03/27 14:18:16;;;;;;;3.08;1.30;;;16.00;27.00;;;;;;5129470;27;20429;-72
2021/03/27 14:20:48;;;;;;;2.60;1.50;;;15.70;26.90;;;;;;5116211;27;20188;-72
2021/03/27 14:23:55;;;;;;;5.53;1.50;;;15.50;27.40;;;;;;5114640;27;20920;-72
2021/03/27 14:26:28;;;;;;;3.17;1.50;;;15.30;27.80;;;;;;5128132;27;20255;-72
2021/03/27 14:28:59;;;;;;;7.28;1.27;;;15.30;28.20;;;;;;5133131;27;20191;-72
2021/03/27 14:31:43;;;;;;;6.20;1.40;;;15.40;28.30;;;;;;5127927;27;20187;-72